createdAt,value
2018-04-14T00:02:12.231Z,35.85
2018-04-14T00:04:40.475Z,36.60
2018-04-14T00:07:07.972Z,33.67
2018-04-14T00:09:35.418Z,40.42
2018-04-14T00:12:03.660Z,36.58
2018-04-14T00:14:31.125Z,37.72
2018-04-14T00:16:58.604Z,36.25
2018-04-14T00:19:26.855Z,40.78
2018-04-14T00:21:54.342Z,47.20
2018-04-14T00:24:21.793Z,40.53
2018-04-14T00:26:49.337Z,41.25
2018-04-14T00:29:17.612Z,42.25
2018-04-14T00:31:45.856Z,40.35
2018-04-14T00:34:13.347Z,40.05
2018-04-14T00:36:40.828Z,42.88
2018-04-14T00:39:08.322Z,46.70
2018-04-14T00:41:35.772Z,41.75
2018-04-14T00:44:03.238Z,43.90
2018-04-14T00:46:30.711Z,41.30
2018-04-14T00:48:58.178Z,45.55
2018-04-14T00:51:25.699Z,43.15
2018-04-14T00:53:53.174Z,45.50
2018-04-14T00:56:20.635Z,53.83
2018-04-14T00:58:48.157Z,49.83
2018-04-14T01:01:15.679Z,57.90
2018-04-14T01:03:43.154Z,58.00
2018-04-14T01:06:10.638Z,50.85
2018-04-14T01:08:38.114Z,58.70
2018-04-14T01:11:05.590Z,58.63
2018-04-14T01:13:33.023Z,55.30
2018-04-14T01:16:00.501Z,61.17
2018-04-14T01:18:27.946Z,62.30
2018-04-14T01:20:55.461Z,57.70
2018-04-14T01:23:23.850Z,59.00
2018-04-14T01:25:51.331Z,59.45
2018-04-14T01:28:18.789Z,71.82
2018-04-14T01:30:46.261Z,62.42
2018-04-14T01:33:15.371Z,61.70
2018-04-14T01:35:42.892Z,59.88
2018-04-14T01:38:10.347Z,58.53
2018-04-14T01:40:37.836Z,62.42
2018-04-14T01:43:05.290Z,65.05
2018-04-14T01:45:32.799Z,55.95
2018-04-14T01:48:00.267Z,56.58
2018-04-14T01:50:27.737Z,60.40
2018-04-14T01:52:55.199Z,55.08
2018-04-14T01:55:22.672Z,59.22
2018-04-14T01:57:50.895Z,64.18
2018-04-14T02:00:18.361Z,60.60
2018-04-14T02:02:45.870Z,62.22
2018-04-14T02:05:13.441Z,59.60
2018-04-14T02:07:41.674Z,55.12
2018-04-14T02:10:09.165Z,52.88
2018-04-14T02:12:37.385Z,51.55
2018-04-14T02:15:04.855Z,53.00
2018-04-14T02:17:32.430Z,50.40
2018-04-14T02:19:59.901Z,53.72
2018-04-14T02:22:27.402Z,49.70
2018-04-14T02:24:54.859Z,47.92
2018-04-14T02:27:22.374Z,49.97
2018-04-14T02:29:49.982Z,50.03
2018-04-14T02:32:17.453Z,47.42
2018-04-14T02:34:44.915Z,53.05
2018-04-14T02:37:12.408Z,47.53
2018-04-14T02:39:39.871Z,46.28
2018-04-14T02:42:08.135Z,45.55
2018-04-14T02:44:35.588Z,48.35
2018-04-14T02:47:03.820Z,46.50
2018-04-14T02:49:31.289Z,42.70
2018-04-14T02:51:58.765Z,46.60
2018-04-14T02:54:26.302Z,45.42
2018-04-14T02:56:53.764Z,42.05
2018-04-14T02:59:21.225Z,44.28
2018-04-14T03:01:48.708Z,42.00
2018-04-14T03:04:16.163Z,44.97
2018-04-14T03:06:44.396Z,41.33
2018-04-14T03:09:11.855Z,46.70
2018-04-14T03:11:39.349Z,35.45
2018-04-14T03:14:07.587Z,40.10
2018-04-14T03:16:35.048Z,35.53
2018-04-14T03:19:02.553Z,30.62
2018-04-14T03:21:29.997Z,34.70
2018-04-14T03:23:58.234Z,36.58
2018-04-14T03:26:25.698Z,34.53
2018-04-14T03:28:53.153Z,33.58
2018-04-14T03:31:20.702Z,35.67
2018-04-14T03:33:48.880Z,41.15
2018-04-14T03:36:16.367Z,33.97
2018-04-14T03:38:43.826Z,37.15
2018-04-14T03:41:12.073Z,37.85
2018-04-14T03:43:39.526Z,35.60
2018-04-14T03:46:07.002Z,38.28
2018-04-14T03:48:34.456Z,34.83
2018-04-14T03:51:01.966Z,35.08
2018-04-14T03:53:29.410Z,37.97
2018-04-14T03:55:56.930Z,37.17
2018-04-14T03:58:24.384Z,36.55
2018-04-14T04:00:52.744Z,36.42
2018-04-14T04:03:20.186Z,36.25
2018-04-14T04:05:47.661Z,34.38
2018-04-14T04:08:15.127Z,37.08
2018-04-14T04:10:42.617Z,36.00
2018-04-14T04:13:10.077Z,37.55
2018-04-14T04:15:37.596Z,38.17
2018-04-14T04:18:04.992Z,44.65
2018-04-14T04:20:51.206Z,39.40
2018-04-14T04:23:30.425Z,42.00
2018-04-14T04:25:57.876Z,38.15
2018-04-14T04:28:25.359Z,42.67
2018-04-14T04:30:52.834Z,41.13
2018-04-14T04:33:20.318Z,43.10
2018-04-14T04:35:48.591Z,43.15
2018-04-14T04:38:16.828Z,42.97
2018-04-14T04:40:44.267Z,41.85
2018-04-14T04:43:11.743Z,46.47
2018-04-14T04:45:40.001Z,41.83
2018-04-14T04:48:07.453Z,47.92
2018-04-14T04:50:35.074Z,43.45
2018-04-14T04:53:02.547Z,46.37
2018-04-14T04:55:30.000Z,49.83
2018-04-14T04:57:57.512Z,48.10
2018-04-14T05:00:24.950Z,45.90
2018-04-14T05:02:52.412Z,43.90
2018-04-14T05:05:19.895Z,53.35
2018-04-14T05:07:47.348Z,46.25
2018-04-14T05:10:14.842Z,58.92
2018-04-14T05:12:43.055Z,48.42
2018-04-14T05:15:10.587Z,49.63
2018-04-14T05:17:38.065Z,49.42
2018-04-14T05:20:05.538Z,46.92
2018-04-14T05:22:32.963Z,50.08
2018-04-14T05:25:01.318Z,48.08
2018-04-14T05:27:28.799Z,44.15
2018-04-14T05:29:56.294Z,41.40
2018-04-14T05:32:23.757Z,41.72
2018-04-14T05:34:51.367Z,40.40
2018-04-14T05:37:18.932Z,36.10
2018-04-14T05:39:46.393Z,31.05
2018-04-14T05:42:13.858Z,32.05
2018-04-14T05:44:41.337Z,29.95
2018-04-14T05:47:08.843Z,26.30
2018-04-14T05:49:36.328Z,25.17
2018-04-14T05:52:03.874Z,29.23
2018-04-14T05:54:31.338Z,28.08
2018-04-14T05:56:58.808Z,25.52
2018-04-14T05:59:26.287Z,28.00
2018-04-14T06:01:53.808Z,26.58
2018-04-14T06:04:21.292Z,29.67
2018-04-14T06:06:49.608Z,30.52
2018-04-14T06:09:17.810Z,29.33
2018-04-14T06:11:45.386Z,28.20
2018-04-14T06:14:12.864Z,26.98
2018-04-14T06:16:40.344Z,29.02
2018-04-14T06:19:07.806Z,27.80
2018-04-14T06:21:35.293Z,28.75
2018-04-14T06:24:02.754Z,26.20
2018-04-14T06:26:30.227Z,28.00
2018-04-14T06:28:57.694Z,25.13
2018-04-14T06:31:25.396Z,22.80
2018-04-14T06:33:52.962Z,25.03
2018-04-14T06:36:20.440Z,22.63
2018-04-14T06:38:47.906Z,25.70
2018-04-14T06:41:15.427Z,26.20
2018-04-14T06:43:43.735Z,26.47
2018-04-14T06:46:11.214Z,23.43
2018-04-14T06:48:38.658Z,25.50
2018-04-14T06:51:06.202Z,26.67
2018-04-14T06:53:33.675Z,26.10
2018-04-14T06:56:01.178Z,25.20
2018-04-14T06:58:35.604Z,27.73
2018-04-14T07:01:03.853Z,29.40
2018-04-14T07:03:31.310Z,27.43
2018-04-14T07:05:59.547Z,26.83
2018-04-14T07:08:27.047Z,29.00
2018-04-14T07:10:55.318Z,30.43
2018-04-14T07:13:23.591Z,29.60
2018-04-14T07:15:51.065Z,32.07
2018-04-14T07:18:19.312Z,30.30
2018-04-14T07:20:46.830Z,30.40
2018-04-14T07:23:14.267Z,28.93
2018-04-14T07:25:41.806Z,30.57
2018-04-14T07:28:10.020Z,28.80
2018-04-14T07:30:37.524Z,28.87
2018-04-14T07:33:05.036Z,28.17
2018-04-14T07:35:32.524Z,28.00
2018-04-14T07:38:00.020Z,26.65
2018-04-14T07:40:28.837Z,28.45
2018-04-14T07:42:56.329Z,27.07
2018-04-14T07:45:23.800Z,29.50
2018-04-14T07:47:51.271Z,26.43
2018-04-14T07:50:19.558Z,24.47
2018-04-14T07:52:47.808Z,24.77
2018-04-14T07:55:16.048Z,26.03
2018-04-14T07:57:43.581Z,25.67
2018-04-14T08:00:11.024Z,25.47
2018-04-14T08:02:39.275Z,24.27
2018-04-14T08:05:07.530Z,23.27
2018-04-14T08:07:35.036Z,23.77
2018-04-14T08:10:03.199Z,26.30
2018-04-14T08:12:30.721Z,24.57
2018-04-14T08:14:58.202Z,23.00
2018-04-14T08:17:25.722Z,21.37
2018-04-14T08:19:53.214Z,20.97
2018-04-14T08:22:20.674Z,20.70
2018-04-14T08:24:48.971Z,20.37
2018-04-14T08:27:16.947Z,19.07
2018-04-14T08:29:44.476Z,19.27
2018-04-14T08:32:12.713Z,18.60
2018-04-14T08:34:40.195Z,19.37
2018-04-14T08:37:07.682Z,19.80
2018-04-14T08:39:35.299Z,19.17
2018-04-14T08:42:02.783Z,18.10
2018-04-14T08:44:31.028Z,15.57
2018-04-14T08:46:58.512Z,15.73
2018-04-14T08:49:26.813Z,16.70
2018-04-14T08:51:54.261Z,15.50
2018-04-14T08:54:21.843Z,16.20
2018-04-14T08:56:49.279Z,15.33
2018-04-14T08:59:16.793Z,17.57
2018-04-14T09:01:44.362Z,15.67
2018-04-14T09:04:12.673Z,15.87
2018-04-14T09:06:40.132Z,17.47
2018-04-14T09:09:07.651Z,17.17
2018-04-14T09:11:35.047Z,15.63
2018-04-14T09:14:02.584Z,16.93
2018-04-14T09:16:30.826Z,14.90
2018-04-14T09:18:58.337Z,15.70
2018-04-14T09:21:25.815Z,14.93
2018-04-14T09:23:53.331Z,17.63
2018-04-14T09:26:21.666Z,17.03
2018-04-14T09:28:49.178Z,16.17
2018-04-14T09:31:16.652Z,15.77
2018-04-14T09:33:44.102Z,14.17
2018-04-14T09:36:11.575Z,13.67
2018-04-14T09:38:39.039Z,13.13
2018-04-14T09:41:06.599Z,13.70
2018-04-14T09:43:34.063Z,13.70
2018-04-14T09:46:01.567Z,13.17
2018-04-14T09:48:29.022Z,12.87
2018-04-14T09:50:56.452Z,13.30
2018-04-14T09:53:23.925Z,12.60
2018-04-14T09:55:51.460Z,12.87
2018-04-14T09:58:18.981Z,12.67
2018-04-14T10:00:52.156Z,13.50
2018-04-14T10:03:23.431Z,12.00
2018-04-14T10:05:50.926Z,11.80
2018-04-14T10:08:19.205Z,11.70
2018-04-14T10:10:47.502Z,10.63
2018-04-14T10:13:15.801Z,9.60
2018-04-14T10:15:43.265Z,13.03
2018-04-14T10:18:10.735Z,10.27
2018-04-14T10:20:38.253Z,9.20
2018-04-14T10:23:05.765Z,8.93
2018-04-14T10:25:33.243Z,9.03
2018-04-14T10:28:01.535Z,8.13
2018-04-14T10:30:28.955Z,6.97
2018-04-14T10:32:56.419Z,7.03
2018-04-14T10:35:23.965Z,6.60
2018-04-14T10:37:51.457Z,6.60
2018-04-14T10:40:18.907Z,5.93
2018-04-14T10:42:47.115Z,6.53
2018-04-14T10:45:14.598Z,6.83
2018-04-14T10:47:42.052Z,6.63
2018-04-14T10:50:09.558Z,6.47
2018-04-14T10:52:36.964Z,6.03
2018-04-14T10:55:04.495Z,5.93
2018-04-14T10:57:31.931Z,4.67
2018-04-14T10:59:59.391Z,5.40
2018-04-14T11:02:27.613Z,4.80
2018-04-14T11:04:55.088Z,5.83
2018-04-14T11:07:22.590Z,4.87
2018-04-14T11:09:50.072Z,5.10
2018-04-14T11:12:17.528Z,4.63
2018-04-14T11:14:44.983Z,4.50
2018-04-14T11:17:12.570Z,4.47
2018-04-14T11:19:40.027Z,4.60
2018-04-14T11:22:07.605Z,4.30
2018-04-14T11:24:35.025Z,3.30
2018-04-14T11:27:02.543Z,4.37
2018-04-14T11:29:30.027Z,3.80
2018-04-14T11:31:57.527Z,4.37
2018-04-14T11:34:25.756Z,3.30
2018-04-14T11:36:53.219Z,3.83
2018-04-14T11:39:20.687Z,3.03
2018-04-14T11:41:48.173Z,3.47
2018-04-14T11:44:15.628Z,2.80
2018-04-14T11:46:43.092Z,3.47
2018-04-14T11:49:11.387Z,2.90
2018-04-14T11:51:38.874Z,2.83
2018-04-14T11:54:07.112Z,2.80
2018-04-14T11:56:34.690Z,2.90
2018-04-14T11:59:02.162Z,5.93
2018-04-14T12:01:29.605Z,3.23
2018-04-14T12:03:57.126Z,2.97
2018-04-14T12:06:24.623Z,2.53
2018-04-14T12:08:52.107Z,2.60
2018-04-14T12:11:19.558Z,2.57
2018-04-14T12:13:47.820Z,4.47
2018-04-14T12:16:15.290Z,3.07
2018-04-14T12:18:42.752Z,2.33
2018-04-14T12:21:10.204Z,3.40
2018-04-14T12:23:37.687Z,3.00
2018-04-14T12:26:05.910Z,2.93
2018-04-14T12:28:33.373Z,3.43
2018-04-14T12:31:00.827Z,6.60
2018-04-14T12:33:28.293Z,2.40
2018-04-14T12:35:55.745Z,2.40
2018-04-14T12:38:23.231Z,2.07
2018-04-14T12:40:50.680Z,2.20
2018-04-14T12:43:18.208Z,1.93
2018-04-14T12:45:45.674Z,1.80
2018-04-14T12:48:13.123Z,2.53
2018-04-14T12:50:40.614Z,2.20
2018-04-14T12:53:08.072Z,1.40
2018-04-14T12:55:35.596Z,1.40
2018-04-14T12:58:03.057Z,1.43
2018-04-14T13:00:30.539Z,1.50
2018-04-14T13:02:57.990Z,1.80
2018-04-14T13:05:25.462Z,1.63
2018-04-14T13:07:52.911Z,3.20
2018-04-14T13:10:20.340Z,1.33
2018-04-14T13:12:47.884Z,1.67
2018-04-14T13:15:15.352Z,2.00
2018-04-14T13:17:42.814Z,2.00
2018-04-14T13:20:10.266Z,2.83
2018-04-14T13:22:37.725Z,3.40
2018-04-14T13:25:05.191Z,1.80
2018-04-14T13:27:32.684Z,1.70
2018-04-14T13:30:00.109Z,1.20
2018-04-14T13:32:27.563Z,1.47
2018-04-14T13:34:55.009Z,1.07
2018-04-14T13:37:29.378Z,1.07
2018-04-14T13:39:56.893Z,1.77
2018-04-14T13:42:24.355Z,3.07
2018-04-14T13:44:51.811Z,1.80
2018-04-14T13:47:19.292Z,2.27
2018-04-14T13:49:46.891Z,1.00
2018-04-14T13:52:14.363Z,1.33
2018-04-14T13:54:41.851Z,1.30
2018-04-14T13:57:09.310Z,1.10
2018-04-14T13:59:36.780Z,1.77
2018-04-14T14:02:04.237Z,1.67
2018-04-14T14:04:31.694Z,1.50
2018-04-14T14:06:59.153Z,1.43
2018-04-14T14:09:27.401Z,1.10
2018-04-14T14:11:54.861Z,1.43
2018-04-14T14:14:22.323Z,1.57
2018-04-14T14:16:49.788Z,4.00
2018-04-14T14:19:18.015Z,1.37
2018-04-14T14:21:45.494Z,1.70
2018-04-14T14:24:12.962Z,2.63
2018-04-14T14:26:40.422Z,1.50
2018-04-14T14:29:07.898Z,3.37
2018-04-14T14:31:35.347Z,2.47
2018-04-14T14:34:03.598Z,1.70
2018-04-14T14:36:31.052Z,2.83
2018-04-14T14:38:58.511Z,3.13
2018-04-14T14:41:25.955Z,1.87
2018-04-14T14:43:54.182Z,1.10
2018-04-14T14:46:21.654Z,1.70
2018-04-14T14:48:49.116Z,1.50
2018-04-14T14:51:16.606Z,1.30
2018-04-14T14:53:44.079Z,1.53
2018-04-14T14:56:11.557Z,1.23
2018-04-14T14:58:39.040Z,1.83
2018-04-14T15:01:06.513Z,1.63
2018-04-14T15:03:33.952Z,1.63
2018-04-14T15:06:02.191Z,2.23
2018-04-14T15:08:29.637Z,1.43
2018-04-14T15:10:57.108Z,2.73
2018-04-14T15:13:24.731Z,1.67
2018-04-14T15:15:52.203Z,2.60
2018-04-14T15:18:19.654Z,1.73
2018-04-14T15:20:47.128Z,3.13
2018-04-14T15:23:14.587Z,1.40
2018-04-14T15:25:42.033Z,2.53
2018-04-14T15:28:09.503Z,1.70
2018-04-14T15:30:36.960Z,3.10
2018-04-14T15:33:04.440Z,1.30
2018-04-14T15:35:31.935Z,2.07
2018-04-14T15:37:59.408Z,1.60
2018-04-14T15:40:26.879Z,2.00
2018-04-14T15:42:54.341Z,1.50
2018-04-14T15:45:21.806Z,1.60
2018-04-14T15:47:49.303Z,1.60
2018-04-14T15:50:16.767Z,6.13
2018-04-14T15:52:44.231Z,1.97
2018-04-14T15:55:11.730Z,1.57
2018-04-14T15:57:39.210Z,4.30
2018-04-14T16:00:06.626Z,2.37
2018-04-14T16:02:34.109Z,1.97
2018-04-14T16:05:01.555Z,1.60
2018-04-14T16:07:29.783Z,2.03
2018-04-14T16:09:57.278Z,1.70
2018-04-14T16:12:24.726Z,1.70
2018-04-14T16:14:52.186Z,1.90
2018-04-14T16:17:19.678Z,4.73
2018-04-14T16:19:47.132Z,1.70
2018-04-14T16:22:14.606Z,3.20
2018-04-14T16:24:42.056Z,2.87
2018-04-14T16:27:09.556Z,2.20
2018-04-14T16:29:37.787Z,2.13
2018-04-14T16:32:06.036Z,1.70
2018-04-14T16:34:34.321Z,1.60
2018-04-14T16:37:02.012Z,2.73
2018-04-14T16:39:29.462Z,3.57
2018-04-14T16:41:57.727Z,2.20
2018-04-14T16:44:25.975Z,1.67
2018-04-14T16:46:53.451Z,1.70
2018-04-14T16:49:21.655Z,3.83
2018-04-14T16:51:49.130Z,1.50
2018-04-14T16:54:16.579Z,3.60
2018-04-14T16:56:44.858Z,1.97
2018-04-14T16:59:12.296Z,3.70
2018-04-14T17:01:39.763Z,2.10
2018-04-14T17:04:07.242Z,1.97
2018-04-14T17:06:34.783Z,1.40
2018-04-14T17:09:02.232Z,2.20
2018-04-14T17:11:29.690Z,2.70
2018-04-14T17:13:57.174Z,5.10
2018-04-14T17:16:24.633Z,2.00
2018-04-14T17:18:52.110Z,2.97
2018-04-14T17:21:19.578Z,3.20
2018-04-14T17:23:47.484Z,2.50
2018-04-14T17:26:14.972Z,2.20
2018-04-14T17:28:42.437Z,3.30
2018-04-14T17:31:10.137Z,2.80
2018-04-14T17:33:37.588Z,3.73
2018-04-14T17:36:05.037Z,1.97
2018-04-14T17:38:32.494Z,3.33
2018-04-14T17:40:59.965Z,2.60
2018-04-14T17:43:27.448Z,5.23
2018-04-14T17:45:54.894Z,2.77
2018-04-14T17:48:23.193Z,2.20
2018-04-14T17:50:51.447Z,3.30
2018-04-14T17:53:18.925Z,2.90
2018-04-14T17:55:46.994Z,2.93
2018-04-14T17:58:14.472Z,3.27
2018-04-14T18:00:41.944Z,2.57
2018-04-14T18:03:09.409Z,2.43
2018-04-14T18:05:37.178Z,2.80
2018-04-14T18:08:04.623Z,3.07
2018-04-14T18:10:32.895Z,3.90
2018-04-14T18:13:00.362Z,3.70
2018-04-14T18:15:27.802Z,3.63
2018-04-14T18:17:55.287Z,2.07
2018-04-14T18:20:23.538Z,2.20
2018-04-14T18:22:51.757Z,4.00
2018-04-14T18:25:19.221Z,3.47
2018-04-14T18:27:47.424Z,4.10
2018-04-14T18:30:14.991Z,2.80
2018-04-14T18:32:42.454Z,2.57
2018-04-14T18:35:10.706Z,2.83
2018-04-14T18:37:38.208Z,3.80
2018-04-14T18:40:06.430Z,6.50
2018-04-14T18:42:33.895Z,6.77
2018-04-14T18:45:01.376Z,4.73
2018-04-14T18:47:28.863Z,6.80
2018-04-14T18:49:56.339Z,4.80
2018-04-14T18:52:23.797Z,6.33
2018-04-14T18:54:51.321Z,7.43
2018-04-14T18:57:18.810Z,9.17
2018-04-14T18:59:46.295Z,7.93
2018-04-14T19:02:13.785Z,8.37
2018-04-14T19:04:42.001Z,10.23
2018-04-14T19:07:09.499Z,7.90
2018-04-14T19:09:36.974Z,7.40
2018-04-14T19:12:04.452Z,14.33
2018-04-14T19:14:31.904Z,9.23
2018-04-14T19:16:59.406Z,10.43
2018-04-14T19:19:27.421Z,10.73
2018-04-14T19:21:54.873Z,9.60
2018-04-14T19:24:22.367Z,10.37
2018-04-14T19:26:49.845Z,19.87
2018-04-14T19:29:17.338Z,36.70
2018-04-14T19:31:44.790Z,29.80
2018-04-14T19:34:12.260Z,13.60
2018-04-14T19:36:39.757Z,15.83
2018-04-14T19:39:07.204Z,45.07
2018-04-14T19:41:34.682Z,62.73
2018-04-14T19:44:02.162Z,29.43
2018-04-14T19:46:29.651Z,18.87
2018-04-14T19:48:57.119Z,11.90
2018-04-14T19:51:24.603Z,15.57
2018-04-14T19:53:52.087Z,9.17
2018-04-14T19:56:19.594Z,13.53
2018-04-14T19:58:47.843Z,9.77
2018-04-14T20:01:15.307Z,13.30
2018-04-14T20:03:42.785Z,14.07
2018-04-14T20:06:10.255Z,14.60
2018-04-14T20:08:37.753Z,17.77
2018-04-14T20:11:05.252Z,20.30
2018-04-14T20:13:32.743Z,17.67
2018-04-14T20:16:00.239Z,22.10
2018-04-14T20:18:27.898Z,16.87
2018-04-14T20:20:55.363Z,26.30
2018-04-14T20:23:22.826Z,24.60
2018-04-14T20:25:51.071Z,12.73
2018-04-14T20:28:18.540Z,14.83
2018-04-14T20:30:46.793Z,16.10
2018-04-14T20:33:15.064Z,15.07
2018-04-14T20:35:42.536Z,16.03
2018-04-14T20:38:09.987Z,25.93
2018-04-14T20:40:37.459Z,13.77
2018-04-14T20:43:04.948Z,26.80
2018-04-14T20:45:32.414Z,14.53
2018-04-14T20:47:59.943Z,16.80
2018-04-14T20:50:28.185Z,20.60
2018-04-14T20:52:55.696Z,14.30
2018-04-14T20:55:23.911Z,12.90
2018-04-14T20:57:51.424Z,16.20
2018-04-14T21:13:18.953Z,10.40
2018-04-14T21:15:46.428Z,11.40
2018-04-14T21:18:13.939Z,10.50
2018-04-14T21:20:43.161Z,9.57
2018-04-14T21:23:10.679Z,11.50
2018-04-14T21:25:38.160Z,13.40
2018-04-14T21:28:05.662Z,14.30
2018-04-14T21:30:33.177Z,11.87
2018-04-14T21:33:01.095Z,9.00
2018-04-14T21:35:32.807Z,20.53
2018-04-14T21:38:05.255Z,9.97
2018-04-14T21:40:32.744Z,12.83
2018-04-14T21:43:00.983Z,10.77
2018-04-14T21:45:30.060Z,9.97
2018-04-14T21:47:57.584Z,9.87
2018-04-14T21:50:25.144Z,26.40
2018-04-14T21:52:53.162Z,22.43
2018-04-14T21:55:20.700Z,29.90
2018-04-14T21:57:49.719Z,11.50
2018-04-14T22:00:18.907Z,9.50
2018-04-14T22:02:46.374Z,10.23
2018-04-14T22:05:13.872Z,303.37
2018-04-14T22:07:41.452Z,13.17
2018-04-14T22:10:09.716Z,10.90
2018-04-14T22:12:44.944Z,28.23
2018-04-14T22:15:16.148Z,8.30
2018-04-14T22:17:47.824Z,29.13
2018-04-14T22:20:15.324Z,7.70
2018-04-14T22:22:42.787Z,9.97
2018-04-14T22:25:11.081Z,11.10
2018-04-14T22:27:39.302Z,9.20
2018-04-14T22:30:06.784Z,8.70
2018-04-14T22:35:07.301Z,10.80
2018-04-14T22:37:34.799Z,9.93
2018-04-14T22:40:03.098Z,9.03
2018-04-14T22:42:31.370Z,8.30
2018-04-14T22:44:58.843Z,9.97
2018-04-14T22:47:26.311Z,8.17
2018-04-14T22:49:53.774Z,28.03
2018-04-14T22:52:21.307Z,12.23
2018-04-14T22:54:48.784Z,11.60
2018-04-14T22:57:16.268Z,8.67
2018-04-14T22:59:43.698Z,8.43
2018-04-14T23:02:11.182Z,7.70
2018-04-14T23:04:38.610Z,6.20
2018-04-14T23:07:06.099Z,49.00
2018-04-14T23:09:33.574Z,17.43
2018-04-14T23:12:08.562Z,7.83
2018-04-14T23:14:36.045Z,65.60
2018-04-14T23:17:06.192Z,6.03
2018-04-14T23:19:34.896Z,10.17
2018-04-14T23:22:03.130Z,6.30
2018-04-14T23:24:30.612Z,5.30
2018-04-14T23:26:58.606Z,6.40
2018-04-14T23:29:28.960Z,8.30
2018-04-14T23:31:57.196Z,117.07
2018-04-14T23:34:24.678Z,16.33
2018-04-14T23:36:52.623Z,15.03
2018-04-14T23:39:20.892Z,7.03
2018-04-14T23:41:48.332Z,17.80
2018-04-14T23:44:15.839Z,6.53
2018-04-14T23:46:43.288Z,10.73
2018-04-14T23:49:10.779Z,15.50
2018-04-14T23:51:38.221Z,14.50
2018-04-14T23:54:05.728Z,57.83
2018-04-14T23:56:34.556Z,10.13
2018-04-14T23:59:02.046Z,19.13
